createdAt,value
2022-09-06T00:02:22.068Z,12.60
2022-09-06T00:04:50.527Z,12.60
2022-09-06T00:07:18.557Z,12.50
2022-09-06T00:09:48.242Z,12.50
2022-09-06T00:12:18.515Z,12.50
2022-09-06T00:14:47.108Z,12.50
2022-09-06T00:17:16.427Z,12.50
2022-09-06T00:19:46.033Z,12.50
2022-09-06T00:22:14.245Z,12.40
2022-09-06T00:24:44.013Z,12.40
2022-09-06T00:27:12.580Z,12.30
2022-09-06T00:29:42.035Z,12.40
2022-09-06T00:32:10.090Z,12.30
2022-09-06T00:34:38.160Z,12.30
2022-09-06T00:37:06.278Z,12.30
2022-09-06T00:39:35.171Z,12.20
2022-09-06T00:42:03.286Z,12.20
2022-09-06T00:44:31.345Z,12.10
2022-09-06T00:47:00.940Z,12.10
2022-09-06T00:49:30.825Z,12.10
2022-09-06T00:52:02.796Z,12.10
2022-09-06T00:54:31.698Z,12.00
2022-09-06T00:57:00.404Z,12.00
2022-09-06T00:59:30.948Z,12.00
2022-09-06T01:02:00.941Z,12.00
2022-09-06T01:04:30.120Z,12.00
2022-09-06T01:07:06.593Z,11.90
2022-09-06T01:09:53.234Z,11.90
2022-09-06T01:12:31.821Z,11.90
2022-09-06T01:15:10.382Z,11.80
2022-09-06T01:17:50.339Z,11.80
2022-09-06T01:20:36.793Z,11.80
2022-09-06T01:23:51.944Z,11.70
2022-09-06T01:27:03.072Z,11.70
2022-09-06T01:29:37.912Z,11.60
2022-09-06T01:32:13.394Z,11.60
2022-09-06T01:34:48.835Z,11.60
2022-09-06T01:37:20.188Z,11.50
2022-09-06T01:39:48.417Z,11.50
2022-09-06T01:42:19.557Z,11.40
2022-09-06T01:44:54.663Z,11.40
2022-09-06T01:47:36.404Z,11.40
2022-09-06T01:50:25.129Z,11.40
2022-09-06T01:53:02.122Z,11.30
2022-09-06T01:55:33.677Z,11.30
2022-09-06T01:58:23.646Z,11.40
2022-09-06T02:01:01.034Z,11.30
2022-09-06T02:03:37.024Z,11.30
2022-09-06T02:06:08.733Z,11.40
2022-09-06T02:08:40.293Z,11.40
2022-09-06T02:11:10.316Z,11.40
2022-09-06T02:13:41.466Z,11.40
2022-09-06T02:16:13.771Z,11.40
2022-09-06T02:18:45.252Z,11.40
2022-09-06T02:21:17.231Z,11.40
2022-09-06T02:23:47.192Z,11.40
2022-09-06T02:26:21.712Z,11.40
2022-09-06T02:28:50.190Z,11.30
2022-09-06T02:31:24.489Z,11.30
2022-09-06T02:33:53.425Z,11.30
2022-09-06T02:36:22.172Z,11.40
2022-09-06T02:38:50.562Z,11.30
2022-09-06T02:41:22.631Z,11.30
2022-09-06T02:43:50.910Z,11.30
2022-09-06T02:46:20.383Z,11.30
2022-09-06T02:48:48.306Z,11.30
2022-09-06T02:51:16.401Z,11.30
2022-09-06T02:53:44.636Z,11.20
2022-09-06T02:56:12.887Z,11.20
2022-09-06T02:58:41.044Z,11.20
2022-09-06T03:01:09.188Z,11.10
2022-09-06T03:03:38.676Z,11.10
2022-09-06T03:06:07.045Z,11.10
2022-09-06T03:08:36.443Z,11.00
2022-09-06T03:11:04.574Z,11.00
2022-09-06T03:13:32.580Z,11.00
2022-09-06T03:16:01.281Z,11.00
2022-09-06T03:18:31.332Z,11.00
2022-09-06T03:21:00.975Z,11.00
2022-09-06T03:23:30.400Z,11.00
2022-09-06T03:25:58.622Z,11.00
2022-09-06T03:28:27.035Z,11.00
2022-09-06T03:30:55.518Z,11.00
2022-09-06T03:33:23.746Z,11.00
2022-09-06T03:35:53.484Z,11.00
2022-09-06T03:38:23.652Z,10.90
2022-09-06T03:40:52.818Z,10.90
2022-09-06T03:43:23.039Z,10.90
2022-09-06T03:45:52.833Z,10.90
2022-09-06T03:48:22.792Z,10.90
2022-09-06T03:50:52.658Z,10.90
2022-09-06T03:53:23.046Z,10.90
2022-09-06T03:55:52.371Z,10.80
2022-09-06T03:58:23.044Z,10.80
2022-09-06T04:01:00.258Z,10.80
2022-09-06T04:03:28.361Z,10.70
2022-09-06T04:05:56.415Z,10.80
2022-09-06T04:08:25.952Z,10.70
2022-09-06T04:10:54.377Z,10.70
2022-09-06T04:13:23.071Z,10.70
2022-09-06T04:15:52.433Z,10.70
2022-09-06T04:18:21.443Z,10.60
2022-09-06T04:20:50.557Z,10.60
2022-09-06T04:23:19.176Z,10.60
2022-09-06T04:25:49.231Z,10.60
2022-09-06T04:28:18.487Z,10.60
2022-09-06T04:30:47.012Z,10.60
2022-09-06T04:33:15.049Z,10.60
2022-09-06T04:35:43.049Z,10.60
2022-09-06T04:38:11.090Z,10.60
2022-09-06T04:40:39.128Z,10.60
2022-09-06T04:43:08.584Z,10.60
2022-09-06T04:45:36.699Z,10.60
2022-09-06T04:48:04.932Z,10.60
2022-09-06T04:50:33.130Z,10.60
2022-09-06T04:53:01.184Z,10.60
2022-09-06T04:55:31.265Z,10.70
2022-09-06T04:58:00.096Z,10.60
2022-09-06T05:00:31.534Z,10.70
2022-09-06T05:03:00.104Z,10.70
2022-09-06T05:05:28.170Z,10.70
2022-09-06T05:07:56.696Z,10.70
2022-09-06T05:10:25.570Z,10.70
2022-09-06T05:12:55.323Z,10.80
2022-09-06T05:15:24.150Z,10.80
2022-09-06T05:17:53.602Z,10.90
2022-09-06T05:20:21.685Z,10.90
2022-09-06T05:22:53.502Z,11.00
2022-09-06T05:25:21.869Z,11.00
2022-09-06T05:27:50.303Z,11.10
2022-09-06T05:30:19.655Z,11.10
2022-09-06T05:32:47.696Z,11.20
2022-09-06T05:35:17.273Z,11.30
2022-09-06T05:37:45.156Z,11.40
2022-09-06T05:40:13.388Z,11.50
2022-09-06T05:42:41.700Z,11.50
2022-09-06T05:45:10.317Z,11.60
2022-09-06T05:47:38.468Z,11.70
2022-09-06T05:50:07.971Z,11.80
2022-09-06T05:52:38.144Z,11.90
2022-09-06T05:55:07.134Z,12.00
2022-09-06T05:57:35.184Z,12.10
2022-09-06T06:00:03.733Z,12.20
2022-09-06T06:02:31.806Z,12.40
2022-09-06T06:05:00.262Z,12.50
2022-09-06T06:07:28.309Z,12.60
2022-09-06T06:09:59.417Z,12.80
2022-09-06T06:12:27.460Z,12.90
2022-09-06T06:14:55.562Z,13.10
2022-09-06T06:17:23.597Z,13.30
2022-09-06T06:19:51.621Z,13.50
2022-09-06T06:22:19.672Z,13.70
2022-09-06T06:24:47.723Z,13.90
2022-09-06T06:27:17.181Z,14.10
2022-09-06T06:29:45.229Z,14.30
2022-09-06T06:32:13.260Z,14.40
2022-09-06T06:34:41.365Z,14.50
2022-09-06T06:37:09.427Z,14.70
2022-09-06T06:39:38.331Z,14.80
2022-09-06T06:42:07.621Z,15.00
2022-09-06T06:44:37.074Z,15.20
2022-09-06T06:47:04.979Z,15.40
2022-09-06T06:49:32.988Z,15.50
2022-09-06T06:52:01.424Z,15.70
2022-09-06T06:54:31.145Z,15.90
2022-09-06T06:56:59.175Z,16.10
2022-09-06T06:59:27.211Z,16.20
2022-09-06T07:01:56.890Z,16.40
2022-09-06T07:04:24.985Z,16.50
2022-09-06T07:12:31.089Z,17.00
2022-09-06T07:14:59.169Z,17.30
2022-09-06T07:17:29.296Z,17.50
2022-09-06T07:20:13.155Z,17.60
2022-09-06T07:22:42.421Z,17.80
2022-09-06T07:25:14.497Z,17.90
2022-09-06T07:30:19.907Z,18.10
2022-09-06T07:32:49.406Z,18.20
2022-09-06T07:35:20.283Z,18.40
2022-09-06T07:37:56.199Z,18.60
2022-09-06T07:40:24.415Z,18.70
2022-09-06T07:42:52.627Z,18.90
2022-09-06T07:45:20.882Z,19.00
2022-09-06T07:50:47.458Z,19.20
2022-09-06T07:53:24.658Z,19.30
2022-09-06T07:55:58.733Z,19.40
2022-09-06T07:58:26.840Z,19.60
2022-09-06T08:00:54.910Z,19.80
2022-09-06T08:03:24.433Z,19.90
2022-09-06T08:11:26.130Z,20.40
2022-09-06T08:13:55.697Z,20.70
2022-09-06T08:16:28.323Z,20.80
2022-09-06T08:18:59.317Z,20.90
2022-09-06T08:21:29.938Z,21.00
2022-09-06T08:23:59.886Z,21.10
2022-09-06T08:26:29.137Z,21.20
2022-09-06T08:28:59.108Z,21.30
2022-09-06T08:31:28.687Z,21.40
2022-09-06T08:33:59.027Z,21.60
2022-09-06T08:36:29.643Z,21.70
2022-09-06T08:38:58.065Z,21.80
2022-09-06T08:41:28.486Z,22.00
2022-09-06T08:46:55.534Z,22.20
2022-09-06T08:49:26.697Z,22.30
2022-09-06T08:52:24.734Z,22.40
2022-09-06T08:54:58.208Z,22.70
2022-09-06T08:57:40.781Z,23.00
2022-09-06T09:00:12.356Z,23.10
2022-09-06T09:02:45.237Z,23.10
2022-09-06T09:05:23.316Z,23.10
2022-09-06T09:08:01.251Z,23.30
2022-09-06T09:10:30.676Z,23.60
2022-09-06T09:13:04.665Z,23.70
2022-09-06T09:15:35.975Z,23.90
2022-09-06T09:18:06.465Z,24.10
2022-09-06T09:20:35.942Z,24.30
2022-09-06T09:23:04.018Z,24.40
2022-09-06T09:25:33.347Z,24.60
2022-09-06T09:28:01.686Z,24.80
2022-09-06T09:30:49.235Z,24.90
2022-09-06T09:33:27.033Z,24.90
2022-09-06T09:35:57.222Z,25.20
2022-09-06T09:38:27.945Z,25.30
2022-09-06T09:40:57.823Z,25.30
2022-09-06T09:43:27.252Z,25.50
2022-09-06T09:46:30.144Z,25.60
2022-09-06T09:49:04.683Z,25.60
2022-09-06T09:51:35.717Z,25.90
2022-09-06T09:54:06.144Z,26.00
2022-09-06T09:56:39.497Z,26.10
2022-09-06T09:59:18.553Z,26.30
2022-09-06T10:01:46.404Z,26.30
2022-09-06T10:07:12.525Z,26.80
2022-09-06T10:09:43.489Z,27.00
2022-09-06T10:12:19.099Z,26.90
2022-09-06T10:14:49.117Z,26.60
2022-09-06T10:17:29.113Z,26.60
2022-09-06T10:19:57.545Z,26.60
2022-09-06T10:22:31.099Z,27.00
2022-09-06T10:25:30.688Z,27.20
2022-09-06T10:28:20.315Z,27.60
2022-09-06T10:31:03.235Z,27.90
2022-09-06T10:33:39.191Z,28.20
2022-09-06T10:36:08.037Z,28.40
2022-09-06T10:38:54.290Z,28.20
2022-09-06T10:41:33.239Z,28.30
2022-09-06T10:44:14.365Z,28.40
2022-09-06T10:46:46.327Z,28.70
2022-09-06T10:49:18.873Z,28.90
2022-09-06T10:51:50.662Z,28.80
2022-09-06T10:54:23.133Z,28.90
2022-09-06T10:56:56.884Z,29.10
2022-09-06T10:59:38.088Z,29.30
2022-09-06T11:02:17.349Z,29.50
2022-09-06T11:07:39.462Z,29.70
2022-09-06T11:10:17.459Z,29.90
2022-09-06T11:12:51.542Z,30.10
2022-09-06T11:15:21.910Z,30.10
2022-09-06T11:17:56.434Z,30.20
2022-09-06T11:20:32.198Z,30.30
2022-09-06T11:23:31.427Z,30.60
2022-09-06T11:26:15.824Z,30.80
2022-09-06T11:28:48.605Z,30.80
2022-09-06T11:34:20.533Z,30.20
2022-09-06T11:36:50.713Z,30.30
2022-09-06T11:43:03.035Z,30.90
2022-09-06T11:45:42.340Z,31.20
2022-09-06T11:48:35.107Z,31.10
2022-09-06T11:51:07.275Z,31.20
2022-09-06T11:53:57.731Z,31.30
2022-09-06T11:56:32.500Z,31.50
2022-09-06T11:59:07.556Z,31.10
2022-09-06T12:01:39.181Z,30.80
2022-09-06T12:04:11.762Z,30.60
2022-09-06T12:06:43.666Z,30.50
2022-09-06T12:09:32.469Z,30.20
2022-09-06T12:12:00.844Z,30.30
2022-09-06T12:14:34.491Z,30.40
2022-09-06T12:17:26.620Z,30.70
2022-09-06T12:20:06.584Z,30.70
2022-09-06T12:23:05.184Z,30.50
2022-09-06T12:25:57.517Z,30.40
2022-09-06T12:28:38.960Z,30.40
2022-09-06T12:31:31.839Z,30.40
2022-09-06T12:34:06.494Z,30.40
2022-09-06T12:36:34.832Z,30.40
2022-09-06T12:39:05.800Z,30.80
2022-09-06T12:41:43.319Z,31.10
2022-09-06T12:44:12.713Z,31.60
2022-09-06T12:46:48.589Z,32.20
2022-09-06T12:49:20.430Z,32.40
2022-09-06T12:51:48.879Z,32.30
2022-09-06T12:56:50.281Z,32.60
2022-09-06T12:59:21.434Z,32.50
2022-09-06T13:01:57.642Z,32.30
2022-09-06T13:04:33.850Z,31.90
2022-09-06T13:07:04.248Z,32.10
2022-09-06T13:09:33.843Z,32.30
2022-09-06T13:12:07.502Z,31.90
2022-09-06T13:14:36.463Z,31.40
2022-09-06T13:17:06.042Z,31.10
2022-09-06T13:19:36.471Z,30.90
2022-09-06T13:22:07.474Z,31.00
2022-09-06T13:24:47.665Z,31.50
2022-09-06T13:27:35.752Z,32.20
2022-09-06T13:30:06.907Z,32.40
2022-09-06T13:32:37.476Z,32.40
2022-09-06T13:35:06.198Z,31.90
2022-09-06T13:37:36.262Z,31.20
2022-09-06T13:41:06.751Z,30.80
2022-09-06T13:43:33.357Z,31.10
2022-09-06T13:46:06.859Z,30.90
2022-09-06T13:48:36.954Z,30.50
2022-09-06T13:51:06.947Z,30.40
2022-09-06T13:53:35.010Z,29.90
2022-09-06T13:56:03.392Z,29.50
2022-09-06T13:58:31.412Z,29.30
2022-09-06T14:01:00.153Z,29.30
2022-09-06T14:03:29.505Z,29.00
2022-09-06T14:05:59.271Z,28.70
2022-09-06T14:08:38.857Z,28.30
2022-09-06T14:11:15.557Z,28.10
2022-09-06T14:13:44.303Z,27.90
2022-09-06T14:16:13.404Z,27.60
2022-09-06T14:18:41.526Z,27.80
2022-09-06T14:21:11.004Z,28.40
2022-09-06T14:23:39.283Z,29.20
2022-09-06T14:26:07.450Z,29.60
2022-09-06T14:28:35.509Z,30.00
2022-09-06T14:31:14.035Z,29.90
2022-09-06T14:33:42.248Z,30.20
2022-09-06T14:36:13.971Z,30.20
2022-09-06T14:38:45.700Z,30.40
2022-09-06T14:41:15.503Z,30.10
2022-09-06T14:43:44.776Z,29.80
2022-09-06T14:46:15.260Z,29.40
2022-09-06T14:48:43.987Z,29.00
2022-09-06T14:51:17.800Z,28.60
2022-09-06T14:53:46.391Z,28.20
2022-09-06T14:56:15.272Z,28.00
2022-09-06T14:58:44.036Z,27.80
2022-09-06T15:01:14.575Z,27.60
2022-09-06T15:03:44.393Z,27.50
2022-09-06T15:06:14.395Z,27.40
2022-09-06T15:08:42.842Z,27.30
2022-09-06T15:11:12.227Z,27.20
2022-09-06T15:13:41.373Z,27.00
2022-09-06T15:16:11.041Z,26.80
2022-09-06T15:18:39.201Z,26.70
2022-09-06T15:21:11.181Z,26.60
2022-09-06T15:23:41.216Z,26.40
2022-09-06T15:26:10.488Z,26.20
2022-09-06T15:28:38.870Z,26.10
2022-09-06T15:31:08.247Z,25.90
2022-09-06T15:33:37.945Z,25.80
2022-09-06T15:36:07.403Z,25.70
2022-09-06T15:38:36.177Z,25.50
2022-09-06T15:41:10.631Z,25.40
2022-09-06T15:43:42.093Z,25.20
2022-09-06T15:46:10.627Z,25.10
2022-09-06T15:48:42.980Z,24.90
2022-09-06T15:51:14.993Z,24.80
2022-09-06T15:53:44.212Z,24.70
2022-09-06T15:56:16.153Z,24.60
2022-09-06T15:58:45.729Z,24.40
2022-09-06T16:01:16.603Z,24.20
2022-09-06T16:03:46.513Z,24.20
2022-09-06T16:08:53.813Z,23.90
2022-09-06T16:11:23.284Z,23.90
2022-09-06T16:13:51.363Z,23.70
2022-09-06T16:16:19.663Z,23.60
2022-09-06T16:18:48.308Z,23.50
2022-09-06T16:21:18.973Z,23.40
2022-09-06T16:23:50.224Z,23.40
2022-09-06T16:26:21.527Z,23.30
2022-09-06T16:28:52.706Z,23.20
2022-09-06T16:31:22.067Z,23.10
2022-09-06T16:33:50.344Z,23.00
2022-09-06T16:36:19.695Z,22.90
2022-09-06T16:38:47.879Z,22.80
2022-09-06T16:41:19.094Z,22.70
2022-09-06T16:43:49.211Z,22.60
2022-09-06T16:46:19.288Z,22.50
2022-09-06T16:48:52.741Z,22.40
2022-09-06T16:51:22.918Z,22.40
2022-09-06T16:53:51.945Z,22.30
2022-09-06T16:56:22.301Z,22.10
2022-09-06T16:58:52.640Z,22.00
2022-09-06T17:01:23.085Z,22.00
2022-09-06T17:03:51.744Z,21.90
2022-09-06T17:06:20.617Z,21.90
2022-09-06T17:08:49.064Z,21.80
2022-09-06T17:11:21.230Z,21.70
2022-09-06T17:13:51.087Z,21.60
2022-09-06T17:16:39.381Z,21.50
2022-09-06T17:19:08.992Z,21.40
2022-09-06T17:21:39.031Z,21.30
2022-09-06T17:24:08.269Z,21.30
2022-09-06T17:26:38.372Z,21.20
2022-09-06T17:29:06.948Z,21.20
2022-09-06T17:31:36.960Z,21.10
2022-09-06T17:34:05.893Z,21.00
2022-09-06T17:36:35.126Z,20.90
2022-09-06T17:39:04.677Z,20.80
2022-09-06T17:41:37.661Z,20.70
2022-09-06T17:44:07.263Z,20.60
2022-09-06T17:46:41.152Z,20.50
2022-09-06T17:49:13.785Z,20.40
2022-09-06T17:51:42.437Z,20.30
2022-09-06T17:54:11.480Z,20.30
2022-09-06T17:56:39.988Z,20.20
2022-09-06T17:59:10.016Z,20.20
2022-09-06T18:01:41.128Z,20.10
2022-09-06T18:04:10.986Z,20.10
2022-09-06T18:06:41.229Z,20.00
2022-09-06T18:09:11.562Z,19.90
2022-09-06T18:11:40.806Z,19.80
2022-09-06T18:14:10.360Z,19.70
2022-09-06T18:16:40.954Z,19.70
2022-09-06T18:19:09.868Z,19.60
2022-09-06T18:21:40.974Z,19.50
2022-09-06T18:24:10.286Z,19.50
2022-09-06T18:26:38.972Z,19.40
2022-09-06T18:29:11.527Z,19.40
2022-09-06T18:31:41.550Z,19.30
2022-09-06T18:34:10.059Z,19.20
2022-09-06T18:36:38.982Z,19.10
2022-09-06T18:39:07.551Z,19.10
2022-09-06T18:41:53.471Z,19.10
2022-09-06T18:44:22.333Z,18.90
2022-09-06T18:46:55.696Z,18.90
2022-09-06T18:49:23.793Z,18.80
2022-09-06T18:51:51.942Z,18.80
2022-09-06T18:54:20.789Z,18.70
2022-09-06T18:56:49.897Z,18.60
2022-09-06T18:59:18.566Z,18.60
2022-09-06T19:01:46.868Z,18.60
2022-09-06T19:04:16.453Z,18.50
2022-09-06T19:06:45.218Z,18.40
2022-09-06T19:09:16.413Z,18.30
2022-09-06T19:11:46.909Z,18.20
2022-09-06T19:14:15.541Z,18.20
2022-09-06T19:16:45.153Z,18.10
2022-09-06T19:19:13.401Z,18.10
2022-09-06T19:21:42.917Z,18.00
2022-09-06T19:24:14.568Z,18.00
2022-09-06T19:26:44.184Z,18.00
2022-09-06T19:29:14.963Z,17.90
2022-09-06T19:31:44.325Z,17.90
2022-09-06T19:34:15.208Z,17.90
2022-09-06T19:36:45.562Z,17.80
2022-09-06T19:39:16.615Z,17.80
2022-09-06T19:41:46.993Z,17.80
2022-09-06T19:44:16.350Z,17.70
2022-09-06T19:46:46.944Z,17.70
2022-09-06T19:49:19.137Z,17.70
2022-09-06T19:51:50.680Z,17.70
2022-09-06T19:54:18.976Z,17.70
2022-09-06T19:56:47.492Z,17.70
2022-09-06T19:59:17.745Z,17.70
2022-09-06T20:01:47.189Z,17.70
2022-09-06T20:04:15.672Z,17.70
2022-09-06T20:06:44.170Z,17.60
2022-09-06T20:09:15.811Z,17.70
2022-09-06T20:11:44.256Z,17.60
2022-09-06T20:14:13.252Z,17.60
2022-09-06T20:16:42.668Z,17.60
2022-09-06T20:19:12.056Z,17.60
2022-09-06T20:21:40.342Z,17.50
2022-09-06T20:24:09.728Z,17.50
2022-09-06T20:26:40.318Z,17.50
2022-09-06T20:29:08.527Z,17.40
2022-09-06T20:31:38.172Z,17.40
2022-09-06T20:34:07.399Z,17.40
2022-09-06T20:36:35.698Z,17.30
2022-09-06T20:39:04.208Z,17.30
2022-09-06T20:41:33.721Z,17.30
2022-09-06T20:44:03.659Z,17.20
2022-09-06T20:46:33.864Z,17.20
2022-09-06T20:49:04.647Z,17.20
2022-09-06T20:51:34.196Z,17.10
2022-09-06T20:54:03.765Z,17.10
2022-09-06T20:56:33.767Z,17.00
2022-09-06T20:59:05.557Z,17.00
2022-09-06T21:01:37.101Z,17.00
2022-09-06T21:04:07.976Z,17.00
2022-09-06T21:06:37.782Z,16.90
2022-09-06T21:09:07.457Z,16.80
2022-09-06T21:11:35.589Z,16.80
2022-09-06T21:14:05.878Z,16.70
2022-09-06T21:16:34.572Z,16.70
2022-09-06T21:19:05.205Z,16.60
2022-09-06T21:21:34.437Z,16.60
2022-09-06T21:24:03.550Z,16.60
2022-09-06T21:26:31.797Z,16.50
2022-09-06T21:29:00.212Z,16.50
2022-09-06T21:31:31.238Z,16.50
2022-09-06T21:34:00.471Z,16.40
2022-09-06T21:36:32.474Z,16.40
2022-09-06T21:39:02.547Z,16.30
2022-09-06T21:41:31.855Z,16.20
2022-09-06T21:44:01.677Z,16.10
2022-09-06T21:46:33.565Z,16.10
2022-09-06T21:49:03.786Z,15.90
2022-09-06T21:51:32.701Z,15.90
2022-09-06T21:54:03.470Z,15.90
2022-09-06T21:56:32.247Z,15.80
2022-09-06T21:59:00.585Z,15.70
2022-09-06T22:01:33.384Z,15.70
2022-09-06T22:04:02.310Z,15.70
2022-09-06T22:06:31.976Z,15.60
2022-09-06T22:09:02.538Z,15.60
2022-09-06T22:11:34.099Z,15.70
2022-09-06T22:14:03.926Z,15.70
2022-09-06T22:16:34.696Z,15.60
2022-09-06T22:19:04.709Z,15.60
2022-09-06T22:21:33.974Z,15.60
2022-09-06T22:24:03.972Z,15.60
2022-09-06T22:26:34.571Z,15.60
2022-09-06T22:29:05.176Z,15.60
2022-09-06T22:31:35.715Z,15.50
2022-09-06T22:34:04.019Z,15.60
2022-09-06T22:36:32.261Z,15.50
2022-09-06T22:39:00.393Z,15.50
2022-09-06T22:41:31.037Z,15.50
2022-09-06T22:44:00.781Z,15.40
2022-09-06T22:46:29.436Z,15.40
2022-09-06T22:48:59.289Z,15.30
2022-09-06T22:51:27.408Z,15.30
2022-09-06T22:53:55.577Z,15.20
2022-09-06T22:56:24.429Z,15.20
2022-09-06T22:58:52.527Z,15.20
2022-09-06T23:01:20.733Z,15.10
2022-09-06T23:03:50.657Z,15.10
2022-09-06T23:06:20.339Z,15.10
2022-09-06T23:08:48.309Z,15.10
2022-09-06T23:11:19.861Z,15.10
2022-09-06T23:13:47.996Z,15.10
2022-09-06T23:16:18.704Z,15.10
2022-09-06T23:18:47.716Z,15.10
2022-09-06T23:21:17.374Z,15.10
2022-09-06T23:23:47.944Z,15.10
2022-09-06T23:26:17.960Z,15.10
2022-09-06T23:28:46.488Z,15.00
2022-09-06T23:31:16.124Z,15.00
2022-09-06T23:33:44.612Z,15.00
2022-09-06T23:36:14.868Z,15.00
2022-09-06T23:38:44.677Z,15.00
2022-09-06T23:41:14.462Z,15.00
2022-09-06T23:43:43.983Z,14.90
2022-09-06T23:46:12.468Z,14.90
2022-09-06T23:48:40.995Z,14.90
2022-09-06T23:51:09.275Z,14.90
2022-09-06T23:53:37.430Z,14.80
2022-09-06T23:56:05.846Z,14.80
2022-09-06T23:58:35.430Z,14.80
